OMAD/AZI METAR and TAF weather

Enter ICAO airport designator
Station Type Date Time Source
OMAD METAR 2022/06/27 19:00 UTC NOAA

OMAD 271900Z 32009KT CAVOK 32/26 Q0998 NOSIG


Station Type Date Time Source
OMAD Decoded METAR 2022/06/27 19:00 UTC NOAA

Abu Dhabi Bateen Airport, United Arab Emirates (OMAD) 24-26N 054-28E 3M
Jun 27, 2022 - 03:00 PM EDT / 2022.06.27 1900 UTC
Wind: from the NW (320 degrees) at 10 MPH (9 KT):0
Visibility: greater than 7 mile(s):0
Temperature: 89 F (32 C)
Heat index: 102.9 F (39.4 C):1
Dew Point: 78 F (26 C)
Relative Humidity: 70%
Pressure (altimeter): 29.47 in. Hg (0998 hPa)
ob: OMAD 271900Z 32009KT CAVOK 32/26 Q0998 NOSIG
cycle: 19

Station Type Date Time Source
OMAD TAF 2022/06/27 18:00 UTC NOAA

TAF OMAD 271700Z 2718/2900 33010KT 8000 NSC PROB30
TEMPO 2723/2804 VRB02KT 3000 BR BKN006
BECMG 2818/2820 10004KT

Example: see airport list